Canyonville, Oregon
Current Conditions -  °F | °C
As of 2:53 AM on Sunday 23 Nov 2014 (Local Time) from KRBG Reporting Station
Moderate Fog Moderate Fog  
Wind Chill: 40°   Ceiling: 100
Heat Index: 40°   Visibility: 0.25mi
Dew Point: 39°   Wind: 0mph
Humidity: 97%   Direction: NA
Pressure: 30.37"   Gusts: NA
Location:  42.93°N, 123.28°W
Report Text: KRBG 231053Z AUTO 00000KT 1/4SM FG VV001 04/04 A3037 RMK AO2 SLP286 T00440039 TSNO $
Loading
Personal Weather Stations






























Interactive Weather Map New forecast layout! Learn more

10-Day Weather Forecast

Advertisements
Track Severe Weather on mobile